sensor_id;sensor_type;location;lat;lon;timestamp;temperature;humidity
1766;DHT22;880;52.452;8.656;2022-12-07T00:01:42;5.10;99.90
1766;DHT22;880;52.452;8.656;2022-12-07T00:04:16;5.10;99.90
1766;DHT22;880;52.452;8.656;2022-12-07T00:06:45;5.10;99.90
1766;DHT22;880;52.452;8.656;2022-12-07T00:09:15;5.20;99.90
1766;DHT22;880;52.452;8.656;2022-12-07T00:11:43;5.10;99.90
1766;DHT22;880;52.452;8.656;2022-12-07T00:14:13;5.10;99.90
1766;DHT22;880;52.452;8.656;2022-12-07T00:16:43;5.10;99.90
1766;DHT22;880;52.452;8.656;2022-12-07T00:19:12;5.20;99.90
1766;DHT22;880;52.452;8.656;2022-12-07T00:21:40;5.20;99.90
1766;DHT22;880;52.452;8.656;2022-12-07T00:24:07;5.20;99.90
1766;DHT22;880;52.452;8.656;2022-12-07T00:26:37;5.20;99.90
1766;DHT22;880;52.452;8.656;2022-12-07T00:29:25;5.20;99.90
1766;DHT22;880;52.452;8.656;2022-12-07T00:31:52;5.20;99.90
1766;DHT22;880;52.452;8.656;2022-12-07T00:34:20;5.20;99.90
1766;DHT22;880;52.452;8.656;2022-12-07T00:36:48;5.30;99.90
1766;DHT22;880;52.452;8.656;2022-12-07T00:39:15;5.30;99.90
1766;DHT22;880;52.452;8.656;2022-12-07T00:41:42;5.20;99.90
1766;DHT22;880;52.452;8.656;2022-12-07T00:44:09;5.30;99.90
1766;DHT22;880;52.452;8.656;2022-12-07T00:46:36;5.20;99.90
1766;DHT22;880;52.452;8.656;2022-12-07T00:49:03;5.20;99.90
1766;DHT22;880;52.452;8.656;2022-12-07T00:51:31;5.30;99.90
1766;DHT22;880;52.452;8.656;2022-12-07T00:53:58;5.20;99.90
1766;DHT22;880;52.452;8.656;2022-12-07T00:56:27;5.20;99.90
1766;DHT22;880;52.452;8.656;2022-12-07T00:59:00;5.30;99.90
1766;DHT22;880;52.452;8.656;2022-12-07T01:01:31;5.30;99.90
1766;DHT22;880;52.452;8.656;2022-12-07T01:04:01;5.30;99.90
1766;DHT22;880;52.452;8.656;2022-12-07T01:06:29;5.20;99.90
1766;DHT22;880;52.452;8.656;2022-12-07T01:08:56;5.20;99.90
1766;DHT22;880;52.452;8.656;2022-12-07T01:11:26;5.20;99.90
1766;DHT22;880;52.452;8.656;2022-12-07T01:13:56;5.10;99.90
1766;DHT22;880;52.452;8.656;2022-12-07T01:16:28;5.10;99.90
1766;DHT22;880;52.452;8.656;2022-12-07T01:18:58;5.10;99.90
1766;DHT22;880;52.452;8.656;2022-12-07T01:21:28;5.00;99.90
1766;DHT22;880;52.452;8.656;2022-12-07T01:24:01;5.00;99.90
1766;DHT22;880;52.452;8.656;2022-12-07T01:26:29;5.00;99.90
1766;DHT22;880;52.452;8.656;2022-12-07T01:28:56;4.90;99.90
1766;DHT22;880;52.452;8.656;2022-12-07T01:31:26;4.90;99.90
1766;DHT22;880;52.452;8.656;2022-12-07T01:33:58;4.90;99.90
1766;DHT22;880;52.452;8.656;2022-12-07T01:36:32;4.80;99.90
1766;DHT22;880;52.452;8.656;2022-12-07T01:39:03;4.80;99.90
1766;DHT22;880;52.452;8.656;2022-12-07T01:41:36;4.80;99.90
1766;DHT22;880;52.452;8.656;2022-12-07T01:44:14;4.80;99.90
1766;DHT22;880;52.452;8.656;2022-12-07T01:47:11;4.70;99.90
1766;DHT22;880;52.452;8.656;2022-12-07T01:49:44;4.70;99.90
1766;DHT22;880;52.452;8.656;2022-12-07T01:52:26;4.70;99.90
1766;DHT22;880;52.452;8.656;2022-12-07T01:55:00;4.60;99.90
1766;DHT22;880;52.452;8.656;2022-12-07T01:57:31;4.60;99.90
1766;DHT22;880;52.452;8.656;2022-12-07T02:00:01;4.60;99.90
1766;DHT22;880;52.452;8.656;2022-12-07T02:02:48;4.60;99.90
1766;DHT22;880;52.452;8.656;2022-12-07T02:05:18;4.50;99.90
1766;DHT22;880;52.452;8.656;2022-12-07T02:07:47;4.40;99.90
1766;DHT22;880;52.452;8.656;2022-12-07T02:10:21;4.40;99.90
1766;DHT22;880;52.452;8.656;2022-12-07T02:13:03;4.40;99.90
1766;DHT22;880;52.452;8.656;2022-12-07T02:21:53;4.30;99.90
1766;DHT22;880;52.452;8.656;2022-12-07T02:28:04;4.20;99.90
1766;DHT22;880;52.452;8.656;2022-12-07T02:30:35;4.20;99.90
1766;DHT22;880;52.452;8.656;2022-12-07T02:33:37;4.20;99.90
1766;DHT22;880;52.452;8.656;2022-12-07T02:36:12;4.20;99.90
1766;DHT22;880;52.452;8.656;2022-12-07T02:38:52;4.20;99.90
1766;DHT22;880;52.452;8.656;2022-12-07T02:41:30;4.10;99.90
1766;DHT22;880;52.452;8.656;2022-12-07T02:44:01;4.10;99.90
1766;DHT22;880;52.452;8.656;2022-12-07T02:46:37;4.10;99.90
1766;DHT22;880;52.452;8.656;2022-12-07T02:49:07;4.10;99.90
1766;DHT22;880;52.452;8.656;2022-12-07T02:51:39;4.10;99.90
1766;DHT22;880;52.452;8.656;2022-12-07T02:54:15;4.10;99.90
1766;DHT22;880;52.452;8.656;2022-12-07T03:05:48;4.10;99.90
1766;DHT22;880;52.452;8.656;2022-12-07T03:11:42;4.00;99.90
1766;DHT22;880;52.452;8.656;2022-12-07T03:14:27;4.00;99.90
1766;DHT22;880;52.452;8.656;2022-12-07T03:17:10;4.00;99.90
1766;DHT22;880;52.452;8.656;2022-12-07T03:19:41;4.00;99.90
1766;DHT22;880;52.452;8.656;2022-12-07T03:22:11;3.90;99.90
1766;DHT22;880;52.452;8.656;2022-12-07T03:24:45;3.90;99.90
1766;DHT22;880;52.452;8.656;2022-12-07T03:30:12;3.90;99.90
1766;DHT22;880;52.452;8.656;2022-12-07T03:33:00;3.80;99.90
1766;DHT22;880;52.452;8.656;2022-12-07T03:35:59;3.80;99.90
1766;DHT22;880;52.452;8.656;2022-12-07T03:39:03;3.80;99.90
1766;DHT22;880;52.452;8.656;2022-12-07T03:41:39;3.80;99.90
1766;DHT22;880;52.452;8.656;2022-12-07T03:44:11;3.80;99.90
1766;DHT22;880;52.452;8.656;2022-12-07T03:47:11;3.70;99.90
1766;DHT22;880;52.452;8.656;2022-12-07T03:50:19;3.70;99.90
1766;DHT22;880;52.452;8.656;2022-12-07T03:52:52;3.70;99.90
1766;DHT22;880;52.452;8.656;2022-12-07T03:55:28;3.70;99.90
1766;DHT22;880;52.452;8.656;2022-12-07T03:58:06;3.70;99.90
1766;DHT22;880;52.452;8.656;2022-12-07T04:00:35;3.70;99.90
1766;DHT22;880;52.452;8.656;2022-12-07T04:03:02;3.70;99.90
1766;DHT22;880;52.452;8.656;2022-12-07T04:05:30;3.70;99.90
1766;DHT22;880;52.452;8.656;2022-12-07T04:07:57;3.70;99.90
1766;DHT22;880;52.452;8.656;2022-12-07T04:10:24;3.80;99.90
1766;DHT22;880;52.452;8.656;2022-12-07T04:12:51;3.80;99.90
1766;DHT22;880;52.452;8.656;2022-12-07T04:15:18;3.70;99.90
1766;DHT22;880;52.452;8.656;2022-12-07T04:17:45;3.70;99.90
1766;DHT22;880;52.452;8.656;2022-12-07T04:20:12;3.80;99.90
1766;DHT22;880;52.452;8.656;2022-12-07T04:22:39;3.70;99.90
1766;DHT22;880;52.452;8.656;2022-12-07T04:25:06;3.70;99.90
1766;DHT22;880;52.452;8.656;2022-12-07T04:27:33;3.70;99.90
1766;DHT22;880;52.452;8.656;2022-12-07T04:30:00;3.70;99.90
1766;DHT22;880;52.452;8.656;2022-12-07T04:32:29;3.70;99.90
1766;DHT22;880;52.452;8.656;2022-12-07T04:34:56;3.70;99.90
1766;DHT22;880;52.452;8.656;2022-12-07T04:37:23;3.70;99.90
1766;DHT22;880;52.452;8.656;2022-12-07T04:39:50;3.70;99.90
1766;DHT22;880;52.452;8.656;2022-12-07T04:42:17;3.70;99.90
1766;DHT22;880;52.452;8.656;2022-12-07T04:44:44;3.70;99.90
1766;DHT22;880;52.452;8.656;2022-12-07T04:47:11;3.70;99.90
1766;DHT22;880;52.452;8.656;2022-12-07T04:49:38;3.70;99.90
1766;DHT22;880;52.452;8.656;2022-12-07T04:52:05;3.70;99.90
1766;DHT22;880;52.452;8.656;2022-12-07T04:54:32;3.70;99.90
1766;DHT22;880;52.452;8.656;2022-12-07T04:56:59;3.80;99.90
1766;DHT22;880;52.452;8.656;2022-12-07T04:59:26;3.80;99.90
1766;DHT22;880;52.452;8.656;2022-12-07T05:01:53;3.90;99.90
1766;DHT22;880;52.452;8.656;2022-12-07T05:04:20;3.90;99.90
1766;DHT22;880;52.452;8.656;2022-12-07T05:06:47;4.00;99.90
1766;DHT22;880;52.452;8.656;2022-12-07T05:09:14;4.00;99.90
1766;DHT22;880;52.452;8.656;2022-12-07T05:11:41;4.10;99.90
1766;DHT22;880;52.452;8.656;2022-12-07T05:14:18;4.10;99.90
1766;DHT22;880;52.452;8.656;2022-12-07T05:16:48;4.10;99.90
1766;DHT22;880;52.452;8.656;2022-12-07T05:19:17;4.10;99.90
1766;DHT22;880;52.452;8.656;2022-12-07T05:21:45;4.10;99.90
1766;DHT22;880;52.452;8.656;2022-12-07T05:24:13;4.10;99.90
1766;DHT22;880;52.452;8.656;2022-12-07T05:26:43;4.20;99.90
1766;DHT22;880;52.452;8.656;2022-12-07T05:29:12;4.20;99.90
1766;DHT22;880;52.452;8.656;2022-12-07T05:31:40;4.20;99.90
1766;DHT22;880;52.452;8.656;2022-12-07T05:34:08;4.20;99.90
1766;DHT22;880;52.452;8.656;2022-12-07T05:36:35;4.20;99.90
1766;DHT22;880;52.452;8.656;2022-12-07T05:39:02;4.20;99.90
1766;DHT22;880;52.452;8.656;2022-12-07T05:41:29;4.20;99.90
1766;DHT22;880;52.452;8.656;2022-12-07T05:44:15;4.20;99.90
1766;DHT22;880;52.452;8.656;2022-12-07T05:46:41;4.20;99.90
1766;DHT22;880;52.452;8.656;2022-12-07T05:49:08;4.10;99.90
1766;DHT22;880;52.452;8.656;2022-12-07T05:51:35;4.10;99.90
1766;DHT22;880;52.452;8.656;2022-12-07T05:54:02;4.10;99.90
1766;DHT22;880;52.452;8.656;2022-12-07T05:56:29;4.10;99.90
1766;DHT22;880;52.452;8.656;2022-12-07T05:58:56;4.10;99.90
1766;DHT22;880;52.452;8.656;2022-12-07T06:01:42;4.10;99.90
1766;DHT22;880;52.452;8.656;2022-12-07T06:04:10;4.10;99.90
1766;DHT22;880;52.452;8.656;2022-12-07T06:06:37;4.10;99.90
1766;DHT22;880;52.452;8.656;2022-12-07T06:09:04;4.00;99.90
1766;DHT22;880;52.452;8.656;2022-12-07T06:11:31;4.10;99.90
1766;DHT22;880;52.452;8.656;2022-12-07T06:14:17;4.00;99.90
1766;DHT22;880;52.452;8.656;2022-12-07T06:16:44;4.00;99.90
1766;DHT22;880;52.452;8.656;2022-12-07T06:19:11;4.00;99.90
1766;DHT22;880;52.452;8.656;2022-12-07T06:21:38;4.00;99.90
1766;DHT22;880;52.452;8.656;2022-12-07T06:24:05;4.00;99.90
1766;DHT22;880;52.452;8.656;2022-12-07T06:26:33;4.00;99.90
1766;DHT22;880;52.452;8.656;2022-12-07T06:29:00;4.00;99.90
1766;DHT22;880;52.452;8.656;2022-12-07T06:31:26;4.00;99.90
1766;DHT22;880;52.452;8.656;2022-12-07T06:34:09;3.90;99.90
1766;DHT22;880;52.452;8.656;2022-12-07T06:36:38;3.90;99.90
1766;DHT22;880;52.452;8.656;2022-12-07T06:39:05;3.90;99.90
1766;DHT22;880;52.452;8.656;2022-12-07T06:41:37;3.90;99.90
1766;DHT22;880;52.452;8.656;2022-12-07T06:44:07;3.90;99.90
1766;DHT22;880;52.452;8.656;2022-12-07T06:46:34;3.80;99.90
1766;DHT22;880;52.452;8.656;2022-12-07T06:49:05;3.80;99.90
1766;DHT22;880;52.452;8.656;2022-12-07T06:51:33;3.80;99.90
1766;DHT22;880;52.452;8.656;2022-12-07T06:54:04;3.90;99.90
1766;DHT22;880;52.452;8.656;2022-12-07T06:56:31;3.80;99.90
1766;DHT22;880;52.452;8.656;2022-12-07T06:58:58;3.80;99.90
1766;DHT22;880;52.452;8.656;2022-12-07T07:01:24;3.80;99.90
1766;DHT22;880;52.452;8.656;2022-12-07T07:03:52;3.80;99.90
1766;DHT22;880;52.452;8.656;2022-12-07T07:06:19;3.80;99.90
1766;DHT22;880;52.452;8.656;2022-12-07T07:08:46;3.80;99.90
1766;DHT22;880;52.452;8.656;2022-12-07T07:11:13;3.80;99.90
1766;DHT22;880;52.452;8.656;2022-12-07T07:13:40;3.80;99.90
1766;DHT22;880;52.452;8.656;2022-12-07T07:16:08;3.80;99.90
1766;DHT22;880;52.452;8.656;2022-12-07T07:18:35;3.80;99.90
1766;DHT22;880;52.452;8.656;2022-12-07T07:21:03;3.80;99.90
1766;DHT22;880;52.452;8.656;2022-12-07T07:23:30;3.90;99.90
1766;DHT22;880;52.452;8.656;2022-12-07T07:25:57;3.90;99.90
1766;DHT22;880;52.452;8.656;2022-12-07T07:28:24;3.90;99.90
1766;DHT22;880;52.452;8.656;2022-12-07T07:30:51;3.90;99.90
1766;DHT22;880;52.452;8.656;2022-12-07T07:33:18;3.90;99.90
1766;DHT22;880;52.452;8.656;2022-12-07T07:35:45;3.80;99.90
1766;DHT22;880;52.452;8.656;2022-12-07T07:38:12;3.80;99.90
1766;DHT22;880;52.452;8.656;2022-12-07T07:40:39;3.90;99.90
1766;DHT22;880;52.452;8.656;2022-12-07T07:43:06;3.90;99.90
1766;DHT22;880;52.452;8.656;2022-12-07T07:45:33;3.90;99.90
1766;DHT22;880;52.452;8.656;2022-12-07T07:48:00;3.90;99.90
1766;DHT22;880;52.452;8.656;2022-12-07T07:50:27;3.90;99.90
1766;DHT22;880;52.452;8.656;2022-12-07T07:52:56;3.90;99.90
1766;DHT22;880;52.452;8.656;2022-12-07T07:55:23;3.90;99.90
1766;DHT22;880;52.452;8.656;2022-12-07T07:57:50;3.90;99.90
1766;DHT22;880;52.452;8.656;2022-12-07T08:00:21;3.90;99.90
1766;DHT22;880;52.452;8.656;2022-12-07T08:02:48;4.00;99.90
1766;DHT22;880;52.452;8.656;2022-12-07T08:05:15;3.90;99.90
1766;DHT22;880;52.452;8.656;2022-12-07T08:07:43;3.90;99.90
1766;DHT22;880;52.452;8.656;2022-12-07T08:10:11;4.00;99.90
1766;DHT22;880;52.452;8.656;2022-12-07T08:12:41;3.90;99.90
1766;DHT22;880;52.452;8.656;2022-12-07T08:15:29;3.90;99.90
1766;DHT22;880;52.452;8.656;2022-12-07T08:17:57;4.00;99.90
1766;DHT22;880;52.452;8.656;2022-12-07T08:20:25;3.90;99.90
1766;DHT22;880;52.452;8.656;2022-12-07T08:22:52;4.00;99.90
1766;DHT22;880;52.452;8.656;2022-12-07T08:25:20;4.00;99.90
1766;DHT22;880;52.452;8.656;2022-12-07T08:27:48;4.00;99.90
1766;DHT22;880;52.452;8.656;2022-12-07T08:30:16;4.00;99.90
1766;DHT22;880;52.452;8.656;2022-12-07T08:32:44;4.10;99.90
1766;DHT22;880;52.452;8.656;2022-12-07T08:35:12;4.10;99.90
1766;DHT22;880;52.452;8.656;2022-12-07T08:37:40;4.20;99.90
1766;DHT22;880;52.452;8.656;2022-12-07T08:40:09;4.10;99.90
1766;DHT22;880;52.452;8.656;2022-12-07T08:42:38;4.20;99.90
1766;DHT22;880;52.452;8.656;2022-12-07T08:45:09;4.20;99.90
1766;DHT22;880;52.452;8.656;2022-12-07T08:47:44;4.20;99.90
1766;DHT22;880;52.452;8.656;2022-12-07T08:50:23;4.20;99.90
1766;DHT22;880;52.452;8.656;2022-12-07T08:52:56;4.10;99.90
1766;DHT22;880;52.452;8.656;2022-12-07T08:55:25;4.10;99.90
1766;DHT22;880;52.452;8.656;2022-12-07T08:57:52;4.10;99.90
1766;DHT22;880;52.452;8.656;2022-12-07T09:00:19;4.10;99.90
1766;DHT22;880;52.452;8.656;2022-12-07T09:02:46;4.10;99.90
1766;DHT22;880;52.452;8.656;2022-12-07T09:05:14;4.10;99.90
1766;DHT22;880;52.452;8.656;2022-12-07T09:07:46;4.20;99.90
1766;DHT22;880;52.452;8.656;2022-12-07T09:10:16;4.30;99.90
1766;DHT22;880;52.452;8.656;2022-12-07T09:12:43;4.50;99.90
1766;DHT22;880;52.452;8.656;2022-12-07T09:15:09;4.60;99.90
1766;DHT22;880;52.452;8.656;2022-12-07T09:17:36;4.60;99.90
1766;DHT22;880;52.452;8.656;2022-12-07T09:20:05;4.70;99.90
1766;DHT22;880;52.452;8.656;2022-12-07T09:22:33;4.70;99.90
1766;DHT22;880;52.452;8.656;2022-12-07T09:25:01;4.70;99.90
1766;DHT22;880;52.452;8.656;2022-12-07T09:27:29;4.70;99.90
1766;DHT22;880;52.452;8.656;2022-12-07T09:29:56;4.70;99.90
1766;DHT22;880;52.452;8.656;2022-12-07T09:32:23;4.70;99.90
1766;DHT22;880;52.452;8.656;2022-12-07T09:34:50;4.70;99.90
1766;DHT22;880;52.452;8.656;2022-12-07T09:37:17;4.60;99.90
1766;DHT22;880;52.452;8.656;2022-12-07T09:39:45;4.70;99.90
1766;DHT22;880;52.452;8.656;2022-12-07T09:42:38;4.60;99.90
1766;DHT22;880;52.452;8.656;2022-12-07T09:45:14;4.60;99.90
1766;DHT22;880;52.452;8.656;2022-12-07T09:47:42;4.60;99.90
1766;DHT22;880;52.452;8.656;2022-12-07T09:50:16;4.60;99.90
1766;DHT22;880;52.452;8.656;2022-12-07T09:52:47;4.60;99.90
1766;DHT22;880;52.452;8.656;2022-12-07T09:55:21;4.70;99.90
1766;DHT22;880;52.452;8.656;2022-12-07T09:57:50;4.70;99.90
1766;DHT22;880;52.452;8.656;2022-12-07T10:00:20;4.80;99.90
1766;DHT22;880;52.452;8.656;2022-12-07T10:02:59;5.00;99.90
1766;DHT22;880;52.452;8.656;2022-12-07T10:08:03;5.60;99.90
1766;DHT22;880;52.452;8.656;2022-12-07T10:10:33;5.70;99.90
1766;DHT22;880;52.452;8.656;2022-12-07T10:13:14;5.80;99.90
1766;DHT22;880;52.452;8.656;2022-12-07T10:15:56;6.00;99.90
1766;DHT22;880;52.452;8.656;2022-12-07T10:18:38;6.10;99.90
1766;DHT22;880;52.452;8.656;2022-12-07T10:21:16;6.20;99.90
1766;DHT22;880;52.452;8.656;2022-12-07T10:24:03;6.30;99.90
1766;DHT22;880;52.452;8.656;2022-12-07T10:26:34;6.50;99.90
1766;DHT22;880;52.452;8.656;2022-12-07T10:29:29;6.40;99.90
1766;DHT22;880;52.452;8.656;2022-12-07T10:32:00;6.20;99.90
1766;DHT22;880;52.452;8.656;2022-12-07T10:34:33;6.10;99.90
1766;DHT22;880;52.452;8.656;2022-12-07T10:42:28;5.70;99.90
1766;DHT22;880;52.452;8.656;2022-12-07T10:45:15;5.50;99.90
1766;DHT22;880;52.452;8.656;2022-12-07T10:48:13;5.40;99.90
1766;DHT22;880;52.452;8.656;2022-12-07T10:54:31;5.40;99.90
1766;DHT22;880;52.452;8.656;2022-12-07T11:00:15;5.50;99.90
1766;DHT22;880;52.452;8.656;2022-12-07T11:14:36;5.40;99.90
1766;DHT22;880;52.452;8.656;2022-12-07T11:23:54;5.40;99.90
1766;DHT22;880;52.452;8.656;2022-12-07T11:36:04;5.50;99.90
1766;DHT22;880;52.452;8.656;2022-12-07T11:38:57;5.60;99.90
1766;DHT22;880;52.452;8.656;2022-12-07T11:41:35;5.80;99.90
1766;DHT22;880;52.452;8.656;2022-12-07T11:49:54;5.90;99.90
1766;DHT22;880;52.452;8.656;2022-12-07T12:01:32;5.90;99.90
1766;DHT22;880;52.452;8.656;2022-12-07T12:06:40;5.90;99.90
1766;DHT22;880;52.452;8.656;2022-12-07T12:09:19;5.90;99.90
1766;DHT22;880;52.452;8.656;2022-12-07T12:15:38;5.80;99.90
1766;DHT22;880;52.452;8.656;2022-12-07T12:18:30;5.80;99.90
1766;DHT22;880;52.452;8.656;2022-12-07T12:21:11;5.90;99.90
1766;DHT22;880;52.452;8.656;2022-12-07T12:23:59;5.90;99.90
1766;DHT22;880;52.452;8.656;2022-12-07T12:26:31;5.90;99.90
1766;DHT22;880;52.452;8.656;2022-12-07T12:29:24;5.90;99.90
1766;DHT22;880;52.452;8.656;2022-12-07T12:32:34;5.90;99.90
1766;DHT22;880;52.452;8.656;2022-12-07T12:38:47;6.00;99.90
1766;DHT22;880;52.452;8.656;2022-12-07T12:46:54;5.90;99.90
1766;DHT22;880;52.452;8.656;2022-12-07T12:54:22;5.70;99.90
1766;DHT22;880;52.452;8.656;2022-12-07T12:57:05;5.70;99.90
1766;DHT22;880;52.452;8.656;2022-12-07T13:02:32;5.60;99.90
1766;DHT22;880;52.452;8.656;2022-12-07T13:29:13;5.50;99.90
1766;DHT22;880;52.452;8.656;2022-12-07T13:31:46;5.50;99.90
1766;DHT22;880;52.452;8.656;2022-12-07T13:34:36;5.50;99.90
1766;DHT22;880;52.452;8.656;2022-12-07T13:37:20;5.60;99.90
1766;DHT22;880;52.452;8.656;2022-12-07T13:40:22;5.60;99.90
1766;DHT22;880;52.452;8.656;2022-12-07T13:42:58;5.60;99.90
1766;DHT22;880;52.452;8.656;2022-12-07T13:45:31;5.50;99.90
1766;DHT22;880;52.452;8.656;2022-12-07T13:48:35;5.50;99.90
1766;DHT22;880;52.452;8.656;2022-12-07T13:54:00;5.50;99.90
1766;DHT22;880;52.452;8.656;2022-12-07T13:56:34;5.50;99.90
1766;DHT22;880;52.452;8.656;2022-12-07T13:59:02;5.50;99.90
1766;DHT22;880;52.452;8.656;2022-12-07T14:01:32;5.50;99.90
1766;DHT22;880;52.452;8.656;2022-12-07T14:06:50;5.50;99.90
1766;DHT22;880;52.452;8.656;2022-12-07T14:09:20;5.60;99.90
1766;DHT22;880;52.452;8.656;2022-12-07T14:11:51;5.50;99.90
1766;DHT22;880;52.452;8.656;2022-12-07T14:14:29;5.60;99.90
1766;DHT22;880;52.452;8.656;2022-12-07T14:17:19;5.60;99.90
1766;DHT22;880;52.452;8.656;2022-12-07T14:22:26;5.70;99.90
1766;DHT22;880;52.452;8.656;2022-12-07T14:25:18;5.70;99.90
1766;DHT22;880;52.452;8.656;2022-12-07T14:27:58;5.80;99.90
1766;DHT22;880;52.452;8.656;2022-12-07T14:30:31;5.80;99.90
1766;DHT22;880;52.452;8.656;2022-12-07T14:33:01;5.90;99.90
1766;DHT22;880;52.452;8.656;2022-12-07T14:35:30;5.80;99.90
1766;DHT22;880;52.452;8.656;2022-12-07T14:37:58;5.80;99.90
1766;DHT22;880;52.452;8.656;2022-12-07T14:40:27;5.70;99.90
1766;DHT22;880;52.452;8.656;2022-12-07T14:43:04;5.70;99.90
1766;DHT22;880;52.452;8.656;2022-12-07T14:45:33;5.60;99.90
1766;DHT22;880;52.452;8.656;2022-12-07T14:48:00;5.60;99.90
1766;DHT22;880;52.452;8.656;2022-12-07T14:50:52;5.60;99.90
1766;DHT22;880;52.452;8.656;2022-12-07T14:53:46;5.50;99.90
1766;DHT22;880;52.452;8.656;2022-12-07T14:56:23;5.50;99.90
1766;DHT22;880;52.452;8.656;2022-12-07T14:58:50;5.50;99.90
1766;DHT22;880;52.452;8.656;2022-12-07T15:01:17;5.40;99.90
1766;DHT22;880;52.452;8.656;2022-12-07T15:03:44;5.40;99.90
1766;DHT22;880;52.452;8.656;2022-12-07T15:06:17;5.40;99.90
1766;DHT22;880;52.452;8.656;2022-12-07T15:08:45;5.40;99.90
1766;DHT22;880;52.452;8.656;2022-12-07T15:11:14;5.40;99.90
1766;DHT22;880;52.452;8.656;2022-12-07T15:13:42;5.30;99.90
1766;DHT22;880;52.452;8.656;2022-12-07T15:16:29;5.30;99.90
1766;DHT22;880;52.452;8.656;2022-12-07T15:19:19;5.20;99.90
1766;DHT22;880;52.452;8.656;2022-12-07T15:21:54;5.20;99.90
1766;DHT22;880;52.452;8.656;2022-12-07T15:24:21;5.10;99.90
1766;DHT22;880;52.452;8.656;2022-12-07T15:26:50;5.10;99.90
1766;DHT22;880;52.452;8.656;2022-12-07T15:29:18;5.10;99.90
1766;DHT22;880;52.452;8.656;2022-12-07T15:31:52;5.00;99.90
1766;DHT22;880;52.452;8.656;2022-12-07T15:34:24;5.10;99.90
1766;DHT22;880;52.452;8.656;2022-12-07T15:36:52;5.00;99.90
1766;DHT22;880;52.452;8.656;2022-12-07T15:39:18;5.00;99.90
1766;DHT22;880;52.452;8.656;2022-12-07T15:41:46;5.00;99.90
1766;DHT22;880;52.452;8.656;2022-12-07T15:44:13;5.00;99.90
1766;DHT22;880;52.452;8.656;2022-12-07T15:47:00;4.90;99.90
1766;DHT22;880;52.452;8.656;2022-12-07T15:49:27;4.90;99.90
1766;DHT22;880;52.452;8.656;2022-12-07T15:51:54;4.90;99.90
1766;DHT22;880;52.452;8.656;2022-12-07T15:54:24;4.90;99.90
1766;DHT22;880;52.452;8.656;2022-12-07T15:56:53;4.80;99.90
1766;DHT22;880;52.452;8.656;2022-12-07T15:59:21;4.80;99.90
1766;DHT22;880;52.452;8.656;2022-12-07T16:01:48;4.80;99.90
1766;DHT22;880;52.452;8.656;2022-12-07T16:04:15;4.80;99.90
1766;DHT22;880;52.452;8.656;2022-12-07T16:06:42;4.80;99.90
1766;DHT22;880;52.452;8.656;2022-12-07T16:09:09;4.70;99.90
1766;DHT22;880;52.452;8.656;2022-12-07T16:11:36;4.70;99.90
1766;DHT22;880;52.452;8.656;2022-12-07T16:14:03;4.70;99.90
1766;DHT22;880;52.452;8.656;2022-12-07T16:16:31;4.70;99.90
1766;DHT22;880;52.452;8.656;2022-12-07T16:18:58;4.70;99.90
1766;DHT22;880;52.452;8.656;2022-12-07T16:21:25;4.70;99.90
1766;DHT22;880;52.452;8.656;2022-12-07T16:23:52;4.70;99.90
1766;DHT22;880;52.452;8.656;2022-12-07T16:26:21;4.70;99.90
1766;DHT22;880;52.452;8.656;2022-12-07T16:28:52;4.70;99.90
1766;DHT22;880;52.452;8.656;2022-12-07T16:31:22;4.70;99.90
1766;DHT22;880;52.452;8.656;2022-12-07T16:33:53;4.70;99.90
1766;DHT22;880;52.452;8.656;2022-12-07T16:36:21;4.70;99.90
1766;DHT22;880;52.452;8.656;2022-12-07T16:39:11;4.70;99.90
1766;DHT22;880;52.452;8.656;2022-12-07T16:41:38;4.70;99.90
1766;DHT22;880;52.452;8.656;2022-12-07T16:44:07;4.60;99.90
1766;DHT22;880;52.452;8.656;2022-12-07T16:46:36;4.60;99.90
1766;DHT22;880;52.452;8.656;2022-12-07T16:49:04;4.50;99.90
1766;DHT22;880;52.452;8.656;2022-12-07T16:51:32;4.50;99.90
1766;DHT22;880;52.452;8.656;2022-12-07T16:54:01;4.40;99.90
1766;DHT22;880;52.452;8.656;2022-12-07T16:56:28;4.40;99.90
1766;DHT22;880;52.452;8.656;2022-12-07T16:58:58;4.40;99.90
1766;DHT22;880;52.452;8.656;2022-12-07T17:01:26;4.30;99.90
1766;DHT22;880;52.452;8.656;2022-12-07T17:03:56;4.20;99.90
1766;DHT22;880;52.452;8.656;2022-12-07T17:06:26;4.20;99.90
1766;DHT22;880;52.452;8.656;2022-12-07T17:08:54;4.20;99.90
1766;DHT22;880;52.452;8.656;2022-12-07T17:11:27;4.20;99.90
1766;DHT22;880;52.452;8.656;2022-12-07T17:13:57;4.20;99.90
1766;DHT22;880;52.452;8.656;2022-12-07T17:16:43;4.20;99.90
1766;DHT22;880;52.452;8.656;2022-12-07T17:19:12;4.20;99.90
1766;DHT22;880;52.452;8.656;2022-12-07T17:21:41;4.10;99.90
1766;DHT22;880;52.452;8.656;2022-12-07T17:24:11;4.10;99.90
1766;DHT22;880;52.452;8.656;2022-12-07T17:26:40;4.10;99.90
1766;DHT22;880;52.452;8.656;2022-12-07T17:29:10;4.00;99.90
1766;DHT22;880;52.452;8.656;2022-12-07T17:31:38;4.10;99.90
1766;DHT22;880;52.452;8.656;2022-12-07T17:34:11;4.10;99.90
1766;DHT22;880;52.452;8.656;2022-12-07T17:36:39;4.00;99.90
1766;DHT22;880;52.452;8.656;2022-12-07T17:39:07;4.00;99.90
1766;DHT22;880;52.452;8.656;2022-12-07T17:41:37;4.00;99.90
1766;DHT22;880;52.452;8.656;2022-12-07T17:44:23;3.90;99.90
1766;DHT22;880;52.452;8.656;2022-12-07T17:46:52;3.90;99.90
1766;DHT22;880;52.452;8.656;2022-12-07T17:49:21;3.90;99.90
1766;DHT22;880;52.452;8.656;2022-12-07T17:51:48;3.90;99.90
1766;DHT22;880;52.452;8.656;2022-12-07T17:54:34;3.90;99.90
1766;DHT22;880;52.452;8.656;2022-12-07T17:57:01;3.90;99.90
1766;DHT22;880;52.452;8.656;2022-12-07T17:59:28;3.90;99.90
1766;DHT22;880;52.452;8.656;2022-12-07T18:01:55;3.90;99.90
1766;DHT22;880;52.452;8.656;2022-12-07T18:04:22;3.90;99.90
1766;DHT22;880;52.452;8.656;2022-12-07T18:06:50;4.00;99.90
1766;DHT22;880;52.452;8.656;2022-12-07T18:09:19;3.90;99.90
1766;DHT22;880;52.452;8.656;2022-12-07T18:11:47;3.90;99.90
1766;DHT22;880;52.452;8.656;2022-12-07T18:14:14;3.90;99.90
1766;DHT22;880;52.452;8.656;2022-12-07T18:16:42;4.00;99.90
1766;DHT22;880;52.452;8.656;2022-12-07T18:19:10;4.00;99.90
1766;DHT22;880;52.452;8.656;2022-12-07T18:21:40;4.00;99.90
1766;DHT22;880;52.452;8.656;2022-12-07T18:24:09;4.00;99.90
1766;DHT22;880;52.452;8.656;2022-12-07T18:26:38;4.00;99.90
1766;DHT22;880;52.452;8.656;2022-12-07T18:29:06;4.10;99.90
1766;DHT22;880;52.452;8.656;2022-12-07T18:31:34;4.10;99.90
1766;DHT22;880;52.452;8.656;2022-12-07T18:34:07;4.10;99.90
1766;DHT22;880;52.452;8.656;2022-12-07T18:36:42;4.10;99.90
1766;DHT22;880;52.452;8.656;2022-12-07T18:39:12;4.10;99.90
1766;DHT22;880;52.452;8.656;2022-12-07T18:41:40;4.10;99.90
1766;DHT22;880;52.452;8.656;2022-12-07T18:44:09;4.10;99.90
1766;DHT22;880;52.452;8.656;2022-12-07T18:46:36;4.10;99.90
1766;DHT22;880;52.452;8.656;2022-12-07T18:49:03;4.10;99.90
1766;DHT22;880;52.452;8.656;2022-12-07T18:51:30;4.00;99.90
1766;DHT22;880;52.452;8.656;2022-12-07T18:53:59;4.00;99.90
1766;DHT22;880;52.452;8.656;2022-12-07T18:56:27;4.00;99.90
1766;DHT22;880;52.452;8.656;2022-12-07T18:58:59;4.00;99.90
1766;DHT22;880;52.452;8.656;2022-12-07T19:01:48;4.00;99.90
1766;DHT22;880;52.452;8.656;2022-12-07T19:04:17;4.00;99.90
1766;DHT22;880;52.452;8.656;2022-12-07T19:06:46;3.90;99.90
1766;DHT22;880;52.452;8.656;2022-12-07T19:09:14;3.90;99.90
1766;DHT22;880;52.452;8.656;2022-12-07T19:11:42;3.90;99.90
1766;DHT22;880;52.452;8.656;2022-12-07T19:14:27;3.90;99.90
1766;DHT22;880;52.452;8.656;2022-12-07T19:16:59;3.90;99.90
1766;DHT22;880;52.452;8.656;2022-12-07T19:19:34;3.90;99.90
1766;DHT22;880;52.452;8.656;2022-12-07T19:22:02;3.90;99.90
1766;DHT22;880;52.452;8.656;2022-12-07T19:24:30;3.90;99.90